createdAt,value
2022-11-24T00:01:07.466Z,0
2022-11-24T00:02:25.546Z,0
2022-11-24T00:03:43.793Z,0
2022-11-24T00:05:03.120Z,0
2022-11-24T00:06:21.240Z,0
2022-11-24T00:07:39.630Z,0
2022-11-24T00:08:58.205Z,0
2022-11-24T00:10:16.749Z,0
2022-11-24T00:11:35.289Z,0
2022-11-24T00:12:52.409Z,0
2022-11-24T00:14:09.806Z,0
2022-11-24T00:15:29.436Z,0
2022-11-24T00:16:48.742Z,0
2022-11-24T00:18:07.477Z,0
2022-11-24T00:19:26.235Z,0
2022-11-24T00:20:43.908Z,0
2022-11-24T00:22:01.893Z,0
2022-11-24T00:23:19.731Z,0
2022-11-24T00:24:37.864Z,0
2022-11-24T00:25:56.357Z,0
2022-11-24T00:27:14.299Z,0
2022-11-24T00:28:32.994Z,0
2022-11-24T00:29:51.437Z,0
2022-11-24T00:31:15.411Z,0
2022-11-24T00:32:29.166Z,0
2022-11-24T00:33:46.400Z,0
2022-11-24T00:35:04.510Z,0
2022-11-24T00:36:23.063Z,0
2022-11-24T00:37:41.815Z,0
2022-11-24T00:39:00.759Z,0
2022-11-24T00:40:19.703Z,0
2022-11-24T00:41:38.768Z,0
2022-11-24T00:42:57.714Z,0
2022-11-24T00:44:15.408Z,0
2022-11-24T00:45:34.413Z,0
2022-11-24T00:46:53.232Z,0
2022-11-24T00:48:11.191Z,0
2022-11-24T00:49:29.362Z,0
2022-11-24T00:50:47.152Z,0
2022-11-24T00:52:06.582Z,0
2022-11-24T00:53:25.376Z,0
2022-11-24T00:54:43.564Z,0
2022-11-24T00:56:02.514Z,0
2022-11-24T00:57:19.805Z,0
2022-11-24T00:58:38.284Z,0
2022-11-24T00:59:56.452Z,0
2022-11-24T01:01:14.398Z,0
2022-11-24T01:02:31.962Z,0
2022-11-24T01:03:51.511Z,0
2022-11-24T01:05:10.034Z,0
2022-11-24T01:06:27.535Z,0
2022-11-24T01:07:46.880Z,0
2022-11-24T01:09:04.406Z,0
2022-11-24T01:10:22.359Z,0
2022-11-24T01:11:40.688Z,0
2022-11-24T01:12:59.248Z,0
2022-11-24T01:14:17.560Z,0
2022-11-24T01:15:35.950Z,0
2022-11-24T01:16:54.424Z,0
2022-11-24T01:18:12.773Z,0
2022-11-24T01:19:30.421Z,0
2022-11-24T01:20:48.715Z,0
2022-11-24T01:22:07.507Z,0
2022-11-24T01:23:25.476Z,0
2022-11-24T01:24:44.214Z,0
2022-11-24T01:26:02.440Z,0
2022-11-24T01:27:20.572Z,0
2022-11-24T01:28:43.291Z,0
2022-11-24T01:29:58.726Z,0
2022-11-24T01:31:17.264Z,0
2022-11-24T01:32:36.551Z,0
2022-11-24T01:33:55.425Z,0
2022-11-24T01:35:14.250Z,0
2022-11-24T01:36:32.398Z,0
2022-11-24T01:37:50.504Z,0
2022-11-24T01:39:09.064Z,0
2022-11-24T01:40:26.483Z,0
2022-11-24T01:41:44.609Z,0
2022-11-24T01:43:02.944Z,0
2022-11-24T01:44:21.280Z,0
2022-11-24T01:45:40.277Z,0
2022-11-24T01:46:59.692Z,0
2022-11-24T01:48:17.920Z,0
2022-11-24T01:49:35.977Z,0
2022-11-24T01:50:54.875Z,0
2022-11-24T01:52:13.512Z,0
2022-11-24T01:53:32.589Z,0
2022-11-24T01:54:50.581Z,0
2022-11-24T01:56:08.215Z,0
2022-11-24T01:57:27.582Z,0
2022-11-24T01:58:46.527Z,0
2022-11-24T02:00:04.345Z,0
2022-11-24T02:01:23.285Z,0
2022-11-24T02:02:41.209Z,0
2022-11-24T02:03:59.585Z,0
2022-11-24T02:05:18.549Z,0
2022-11-24T02:06:37.213Z,0
2022-11-24T02:07:55.652Z,0
2022-11-24T02:09:14.324Z,0
2022-11-24T02:10:32.127Z,0
2022-11-24T02:11:50.891Z,0
2022-11-24T02:13:08.507Z,0
2022-11-24T02:14:26.215Z,0
2022-11-24T02:15:44.155Z,0
2022-11-24T02:17:01.907Z,0
2022-11-24T02:18:20.211Z,0
2022-11-24T02:19:39.137Z,0
2022-11-24T02:20:56.610Z,0
2022-11-24T02:22:15.594Z,0
2022-11-24T02:23:35.649Z,0
2022-11-24T02:24:54.522Z,0
2022-11-24T02:26:13.168Z,0
2022-11-24T02:27:31.504Z,0
2022-11-24T02:28:49.404Z,0
2022-11-24T02:30:06.640Z,0
2022-11-24T02:31:24.204Z,0
2022-11-24T02:32:42.547Z,0
2022-11-24T02:34:01.734Z,0
2022-11-24T02:35:20.300Z,0
2022-11-24T02:36:38.530Z,0
2022-11-24T02:37:56.454Z,0
2022-11-24T02:39:15.535Z,0
2022-11-24T02:40:33.462Z,0
2022-11-24T02:41:51.889Z,0
2022-11-24T02:43:10.070Z,0
2022-11-24T02:44:28.353Z,0
2022-11-24T02:45:47.600Z,0
2022-11-24T02:47:05.565Z,0
2022-11-24T02:48:23.555Z,0
2022-11-24T02:49:41.713Z,0
2022-11-24T02:51:00.314Z,0
2022-11-24T02:52:18.457Z,0
2022-11-24T02:53:36.364Z,0
2022-11-24T02:54:55.032Z,0
2022-11-24T02:56:13.257Z,0
2022-11-24T02:57:31.260Z,0.1
2022-11-24T02:58:49.361Z,0
2022-11-24T03:00:07.947Z,0
2022-11-24T03:01:26.175Z,0
2022-11-24T03:02:45.000Z,0
2022-11-24T03:04:03.494Z,0
2022-11-24T03:05:21.423Z,0
2022-11-24T03:06:40.583Z,0.05
2022-11-24T03:07:57.585Z,0
2022-11-24T03:09:15.515Z,0
2022-11-24T03:10:33.651Z,0
2022-11-24T03:11:52.518Z,0
2022-11-24T03:13:10.928Z,0
2022-11-24T03:14:28.574Z,0
2022-11-24T03:15:46.607Z,0
2022-11-24T03:17:04.668Z,0
2022-11-24T03:18:22.598Z,0
2022-11-24T03:19:40.704Z,0
2022-11-24T03:21:00.105Z,0
2022-11-24T03:22:18.588Z,0
2022-11-24T03:23:36.440Z,0
2022-11-24T03:24:54.645Z,0
2022-11-24T03:26:13.576Z,0
2022-11-24T03:27:32.567Z,0
2022-11-24T03:28:49.598Z,0
2022-11-24T03:30:07.459Z,0
2022-11-24T03:31:26.510Z,0
2022-11-24T03:32:44.751Z,0
2022-11-24T03:34:03.907Z,0
2022-11-24T03:35:23.473Z,0
2022-11-24T03:36:41.833Z,0
2022-11-24T03:37:59.735Z,0
2022-11-24T03:39:18.489Z,0
2022-11-24T03:40:36.608Z,0
2022-11-24T03:41:55.648Z,0
2022-11-24T03:43:13.078Z,0
2022-11-24T03:44:31.617Z,0
2022-11-24T03:45:50.648Z,0
2022-11-24T03:47:07.889Z,0
2022-11-24T03:48:26.107Z,0
2022-11-24T03:49:44.707Z,0
2022-11-24T03:51:03.573Z,0
2022-11-24T03:52:22.179Z,0
2022-11-24T03:53:40.038Z,0
2022-11-24T03:54:59.290Z,0
2022-11-24T03:56:17.623Z,0
2022-11-24T03:57:36.578Z,0
2022-11-24T03:58:55.634Z,0
2022-11-24T04:00:13.755Z,0
2022-11-24T04:01:32.745Z,0
2022-11-24T04:02:50.618Z,0
2022-11-24T04:04:08.285Z,0
2022-11-24T04:05:27.461Z,0
2022-11-24T04:06:45.709Z,0
2022-11-24T04:08:04.983Z,0
2022-11-24T04:09:24.739Z,0
2022-11-24T04:10:42.614Z,0
2022-11-24T04:12:00.279Z,0
2022-11-24T04:13:17.663Z,0
2022-11-24T04:14:35.042Z,0
2022-11-24T04:15:52.729Z,0
2022-11-24T04:17:11.754Z,0
2022-11-24T04:18:29.750Z,0
2022-11-24T04:19:48.242Z,0
2022-11-24T04:21:06.123Z,0
2022-11-24T04:22:24.754Z,0
2022-11-24T04:23:43.634Z,0
2022-11-24T04:25:01.048Z,0
2022-11-24T04:26:19.864Z,0
2022-11-24T04:27:39.185Z,0
2022-11-24T04:28:57.324Z,0
2022-11-24T04:30:15.588Z,0
2022-11-24T04:31:34.965Z,0
2022-11-24T04:32:53.759Z,0
2022-11-24T04:34:12.859Z,0
2022-11-24T04:35:29.707Z,0
2022-11-24T04:36:48.369Z,0
2022-11-24T04:38:07.033Z,0
2022-11-24T04:39:28.397Z,0
2022-11-24T04:40:44.053Z,0
2022-11-24T04:42:03.241Z,0
2022-11-24T04:43:21.777Z,0
2022-11-24T04:44:38.992Z,0
2022-11-24T04:45:57.227Z,0
2022-11-24T04:47:17.053Z,0
2022-11-24T04:48:35.422Z,0
2022-11-24T04:49:52.725Z,0
2022-11-24T04:51:10.923Z,0
2022-11-24T04:52:28.924Z,0
2022-11-24T04:53:48.042Z,0
2022-11-24T04:55:06.324Z,0
2022-11-24T04:56:24.655Z,0
2022-11-24T04:57:43.428Z,0.09
2022-11-24T04:59:06.722Z,0
2022-11-24T05:00:20.567Z,0
2022-11-24T05:01:39.567Z,0
2022-11-24T05:02:57.179Z,0
2022-11-24T05:04:15.773Z,0.12
2022-11-24T05:05:34.438Z,0.19
2022-11-24T05:06:52.058Z,0
2022-11-24T05:08:09.607Z,0
2022-11-24T05:09:41.905Z,0
2022-11-24T05:10:43.611Z,0
2022-11-24T05:12:02.131Z,0
2022-11-24T05:13:19.600Z,0
2022-11-24T05:14:36.953Z,0
2022-11-24T05:15:54.716Z,0
2022-11-24T05:17:12.684Z,0
2022-11-24T05:18:29.711Z,0
2022-11-24T05:19:46.624Z,0
2022-11-24T05:21:03.652Z,0
2022-11-24T05:22:20.718Z,0
2022-11-24T05:23:38.646Z,0
2022-11-24T05:24:55.621Z,0
2022-11-24T05:26:12.676Z,0
2022-11-24T05:27:29.962Z,0
2022-11-24T05:28:47.690Z,0
2022-11-24T05:30:04.790Z,0
2022-11-24T05:31:22.645Z,0
2022-11-24T05:32:39.604Z,0
2022-11-24T05:33:56.717Z,0
2022-11-24T05:35:13.629Z,0
2022-11-24T05:36:30.660Z,0
2022-11-24T05:37:47.664Z,0
2022-11-24T05:39:04.656Z,0
2022-11-24T05:40:22.641Z,0
2022-11-24T05:41:40.085Z,0
2022-11-24T05:42:57.626Z,0
2022-11-24T05:44:14.653Z,0
2022-11-24T05:45:31.964Z,0
2022-11-24T05:46:49.669Z,0
2022-11-24T05:48:06.900Z,0
2022-11-24T05:49:24.696Z,0
2022-11-24T05:50:41.639Z,0
2022-11-24T05:51:58.665Z,0
2022-11-24T05:53:15.641Z,0
2022-11-24T05:54:32.785Z,0
2022-11-24T05:55:49.552Z,0
2022-11-24T05:57:06.403Z,0
2022-11-24T05:58:23.457Z,0
2022-11-24T05:59:40.481Z,0
2022-11-24T06:00:57.386Z,0
2022-11-24T06:02:14.491Z,0
2022-11-24T06:03:31.450Z,0
2022-11-24T06:04:48.385Z,0
2022-11-24T06:06:05.439Z,0
2022-11-24T06:07:22.530Z,0
2022-11-24T06:08:39.413Z,0
2022-11-24T06:09:56.412Z,0
2022-11-24T06:11:13.458Z,0
2022-11-24T06:12:30.423Z,0
2022-11-24T06:13:47.531Z,0
2022-11-24T06:15:04.485Z,0
2022-11-24T06:16:21.630Z,0
2022-11-24T06:17:38.423Z,0
2022-11-24T06:18:55.474Z,0
2022-11-24T06:20:12.765Z,0
2022-11-24T06:21:29.408Z,0
2022-11-24T06:22:46.526Z,0
2022-11-24T06:24:03.428Z,0
2022-11-24T06:25:20.408Z,0
2022-11-24T06:26:37.407Z,0
2022-11-24T06:27:54.616Z,0
2022-11-24T06:29:11.495Z,0
2022-11-24T06:30:28.444Z,0
2022-11-24T06:31:45.548Z,0
2022-11-24T06:33:03.015Z,0
2022-11-24T06:34:20.519Z,0
2022-11-24T06:35:37.795Z,0
2022-11-24T06:36:54.433Z,0
2022-11-24T06:38:11.826Z,0
2022-11-24T06:39:28.711Z,0
2022-11-24T06:40:45.462Z,0
2022-11-24T06:42:02.435Z,0
2022-11-24T06:43:19.442Z,0
2022-11-24T06:44:36.692Z,0
2022-11-24T06:45:53.497Z,0
2022-11-24T06:47:10.452Z,0
2022-11-24T06:48:27.555Z,0
2022-11-24T06:49:44.504Z,0
2022-11-24T06:51:01.436Z,0
2022-11-24T06:52:19.313Z,0
2022-11-24T06:53:36.539Z,0
2022-11-24T06:54:53.500Z,0
2022-11-24T06:56:15.573Z,0
2022-11-24T06:57:27.447Z,0
2022-11-24T06:58:44.469Z,0
2022-11-24T07:00:02.345Z,0
2022-11-24T07:01:19.501Z,0
2022-11-24T07:02:38.846Z,0
2022-11-24T07:03:53.471Z,0
2022-11-24T07:05:10.657Z,0
2022-11-24T07:06:27.712Z,0
2022-11-24T07:07:44.610Z,0
2022-11-24T07:09:01.623Z,0
2022-11-24T07:10:18.467Z,0.3
2022-11-24T07:11:35.483Z,0.28
2022-11-24T07:12:52.529Z,0.29
2022-11-24T07:14:09.500Z,0.29
2022-11-24T07:15:26.521Z,0.29
2022-11-24T07:16:43.560Z,0.28
2022-11-24T07:18:00.545Z,0.34
2022-11-24T07:19:21.651Z,0.3
2022-11-24T07:20:34.487Z,0.42
2022-11-24T07:21:51.878Z,0.52
2022-11-24T07:23:08.678Z,0.21
2022-11-24T07:24:25.577Z,0
2022-11-24T07:25:43.000Z,0
2022-11-24T07:26:59.619Z,0
2022-11-24T07:28:16.531Z,0
2022-11-24T07:29:33.788Z,0
2022-11-24T07:30:50.521Z,0
2022-11-24T07:32:07.576Z,0
2022-11-24T07:33:24.935Z,0
2022-11-24T07:34:41.540Z,0
2022-11-24T07:35:58.663Z,0
2022-11-24T07:37:15.533Z,0
2022-11-24T07:38:32.494Z,0
2022-11-24T07:39:49.659Z,0
2022-11-24T07:41:06.598Z,0
2022-11-24T07:42:24.558Z,0
2022-11-24T07:43:41.708Z,0
2022-11-24T07:44:58.598Z,0
2022-11-24T07:46:15.766Z,0
2022-11-24T07:47:32.510Z,0
2022-11-24T07:48:49.523Z,0
2022-11-24T07:50:06.776Z,0
2022-11-24T07:51:23.513Z,0.3
2022-11-24T07:52:40.518Z,0.24
2022-11-24T07:53:57.575Z,0.22
2022-11-24T07:55:14.675Z,0.27
2022-11-24T07:56:31.820Z,0.22
2022-11-24T07:57:48.547Z,0.37
2022-11-24T07:59:06.089Z,0.36
2022-11-24T08:00:22.609Z,0.31
2022-11-24T08:01:39.686Z,0
2022-11-24T08:02:56.535Z,0.13
2022-11-24T08:04:13.643Z,0
2022-11-24T08:05:30.656Z,0
2022-11-24T08:06:47.869Z,0
2022-11-24T08:08:04.795Z,0
2022-11-24T08:09:21.598Z,0
2022-11-24T08:10:38.903Z,0
2022-11-24T08:11:55.918Z,0
2022-11-24T08:13:12.570Z,0
2022-11-24T08:14:29.589Z,0
2022-11-24T08:15:46.648Z,0
2022-11-24T08:17:03.694Z,0
2022-11-24T08:18:20.593Z,0
2022-11-24T08:19:37.607Z,0
2022-11-24T08:20:54.648Z,0.34
2022-11-24T08:22:11.578Z,0.37
2022-11-24T08:23:28.706Z,0.4
2022-11-24T08:24:45.572Z,0.4
2022-11-24T08:26:03.067Z,0.35
2022-11-24T08:27:19.647Z,0.14
2022-11-24T08:28:36.639Z,0
2022-11-24T08:29:53.658Z,0.05
2022-11-24T08:31:10.861Z,0.16
2022-11-24T08:32:27.657Z,0.15
2022-11-24T08:33:44.702Z,0
2022-11-24T08:35:13.283Z,0.2
2022-11-24T08:36:18.577Z,0
2022-11-24T08:37:35.594Z,0.06
2022-11-24T08:38:52.723Z,0.24
2022-11-24T08:40:09.584Z,0.35
2022-11-24T08:41:26.715Z,0.22
2022-11-24T08:42:43.640Z,0.22
2022-11-24T08:44:01.351Z,0.53
2022-11-24T08:45:22.005Z,0.15
2022-11-24T08:46:34.861Z,0.46
2022-11-24T08:47:51.783Z,0.51
2022-11-24T08:49:08.656Z,0.47
2022-11-24T08:50:25.634Z,0.43
2022-11-24T08:51:42.751Z,0.12
2022-11-24T08:52:59.617Z,0.63
2022-11-24T08:54:16.758Z,0.41
2022-11-24T08:55:33.666Z,0.3
2022-11-24T08:56:50.994Z,0.45
2022-11-24T08:58:07.844Z,0.64
2022-11-24T08:59:24.844Z,0.78
2022-11-24T09:00:41.834Z,0.34
2022-11-24T09:01:58.715Z,0
2022-11-24T09:03:15.624Z,0.2
2022-11-24T09:04:33.693Z,0.54
2022-11-24T09:05:52.423Z,0.74
2022-11-24T09:07:07.346Z,0.39
2022-11-24T09:08:24.666Z,0.15
2022-11-24T09:09:41.808Z,0.52
2022-11-24T09:10:58.945Z,0.21
2022-11-24T09:12:15.989Z,0.21
2022-11-24T09:13:32.655Z,0.33
2022-11-24T09:14:49.952Z,0.3
2022-11-24T09:16:06.729Z,0.12
2022-11-24T09:17:24.078Z,0.16
2022-11-24T09:18:40.660Z,0.36
2022-11-24T09:21:37.395Z,0.37
2022-11-24T09:22:54.681Z,0.64
2022-11-24T09:24:18.176Z,0.75
2022-11-24T09:25:35.084Z,0.22
2022-11-24T09:26:52.087Z,0.41
2022-11-24T09:28:08.689Z,0.37
2022-11-24T09:29:25.710Z,0.73
2022-11-24T09:30:42.766Z,0.65
2022-11-24T09:32:05.188Z,0.51
2022-11-24T09:33:16.707Z,0.3
2022-11-24T09:34:33.940Z,0.78
2022-11-24T09:35:50.710Z,0.62
2022-11-24T09:37:07.677Z,0.65
2022-11-24T09:38:24.664Z,0.46
2022-11-24T09:39:41.845Z,0.68
2022-11-24T09:40:58.703Z,0.65
2022-11-24T09:42:15.987Z,0.52
2022-11-24T09:43:32.656Z,0.74
2022-11-24T09:44:49.830Z,0.52
2022-11-24T09:46:06.873Z,0.38
2022-11-24T09:47:23.685Z,0.55
2022-11-24T09:48:40.723Z,0.64
2022-11-24T09:49:57.941Z,0.5
2022-11-24T09:51:14.711Z,0.47
2022-11-24T09:52:31.778Z,0.72
2022-11-24T09:53:48.703Z,0.32
2022-11-24T09:55:05.818Z,0.15
2022-11-24T09:56:22.707Z,0.57
2022-11-24T09:57:39.724Z,0.51
2022-11-24T09:58:56.706Z,0.43
2022-11-24T10:00:13.828Z,0.49
2022-11-24T10:01:31.160Z,0.46
2022-11-24T10:02:47.831Z,0.68
2022-11-24T10:04:06.537Z,0.42
2022-11-24T10:05:21.776Z,0.21
2022-11-24T10:06:38.744Z,0.26
2022-11-24T10:07:55.743Z,0.38
2022-11-24T10:09:12.713Z,0.43
2022-11-24T10:10:29.721Z,0.54
2022-11-24T10:11:46.775Z,0.84
2022-11-24T10:13:03.707Z,0.69
2022-11-24T10:14:20.780Z,0.69
2022-11-24T10:15:37.805Z,0.34
2022-11-24T10:16:54.782Z,0.59
2022-11-24T10:18:16.377Z,0.6
2022-11-24T10:19:36.247Z,0.26
2022-11-24T10:20:45.805Z,0.2
2022-11-24T10:22:02.761Z,0.46
2022-11-24T10:23:19.722Z,0.57
2022-11-24T10:24:36.816Z,0.54
2022-11-24T10:25:53.745Z,0.42
2022-11-24T10:27:10.776Z,0.16
2022-11-24T10:28:27.725Z,0.25
2022-11-24T10:29:45.661Z,0.61
2022-11-24T10:31:02.851Z,0.39
2022-11-24T10:32:19.817Z,0.47
2022-11-24T10:33:36.752Z,0.58
2022-11-24T10:34:53.818Z,0.51
2022-11-24T10:36:10.763Z,0.39
2022-11-24T10:37:28.000Z,0.35
2022-11-24T10:38:45.114Z,0.51
2022-11-24T10:40:01.763Z,0.49
2022-11-24T10:41:18.738Z,0.64
2022-11-24T10:42:35.757Z,0.25
2022-11-24T10:43:52.749Z,0.4
2022-11-24T10:45:09.977Z,0.19
2022-11-24T10:46:26.811Z,0.42
2022-11-24T10:47:43.969Z,0.62
2022-11-24T10:49:00.775Z,0.31
2022-11-24T10:50:17.811Z,0.55
2022-11-24T10:51:34.808Z,0.75
2022-11-24T10:52:51.803Z,0.77
2022-11-24T10:54:08.899Z,0.77
2022-11-24T10:55:26.023Z,0.78
2022-11-24T10:56:42.909Z,0.61
2022-11-24T10:57:59.762Z,0.79
2022-11-24T10:59:16.829Z,0.53
2022-11-24T11:00:33.854Z,0.45
2022-11-24T11:01:50.930Z,0.5
2022-11-24T11:03:07.902Z,0.37
2022-11-24T11:04:24.847Z,0.2
2022-11-24T11:05:41.950Z,0.51
2022-11-24T11:06:58.843Z,0.41
2022-11-24T11:08:15.782Z,0.26
2022-11-24T11:09:33.116Z,0
2022-11-24T11:10:49.822Z,0
2022-11-24T11:12:27.980Z,0.36
2022-11-24T11:13:24.117Z,0.22
2022-11-24T11:14:40.897Z,0.21
2022-11-24T11:15:57.964Z,0.41
2022-11-24T11:17:14.810Z,0.12
2022-11-24T11:18:31.899Z,0.13
2022-11-24T11:19:49.964Z,0.24
2022-11-24T11:21:05.891Z,0
2022-11-24T11:22:22.794Z,0
2022-11-24T11:23:39.879Z,0.44
2022-11-24T11:24:56.815Z,0.21
2022-11-24T11:26:14.055Z,0
2022-11-24T11:27:30.837Z,0
2022-11-24T11:28:47.848Z,0.09
2022-11-24T11:31:22.860Z,0.39
2022-11-24T11:34:04.544Z,0.32
2022-11-24T11:35:13.040Z,0.33
2022-11-24T11:36:29.890Z,0.45
2022-11-24T11:37:46.849Z,0.29
2022-11-24T11:39:03.819Z,0.27
2022-11-24T11:40:20.974Z,0.39
2022-11-24T11:41:38.222Z,0.31
2022-11-24T11:43:03.359Z,0.41
2022-11-24T11:44:13.022Z,0.47
2022-11-24T11:45:30.044Z,0.16
2022-11-24T11:46:47.490Z,0.19
2022-11-24T11:48:04.513Z,0.25
2022-11-24T11:49:21.852Z,0.33
2022-11-24T11:50:59.392Z,0
2022-11-24T11:52:10.535Z,0.2
2022-11-24T11:53:27.910Z,0.28
2022-11-24T11:54:45.117Z,0.14
2022-11-24T11:56:01.850Z,0
2022-11-24T11:57:18.844Z,0
2022-11-24T11:58:35.898Z,0
2022-11-24T11:59:52.973Z,0
2022-11-24T12:01:09.868Z,0.28
2022-11-24T12:02:26.984Z,0
2022-11-24T12:03:44.034Z,0
2022-11-24T12:05:01.027Z,0
2022-11-24T12:06:17.873Z,0
2022-11-24T12:07:35.561Z,0
2022-11-24T12:10:10.218Z,0
2022-11-24T12:11:26.949Z,0
2022-11-24T12:12:44.207Z,0
2022-11-24T12:14:00.907Z,0
2022-11-24T12:15:17.907Z,0.13
2022-11-24T12:16:35.029Z,0.3
2022-11-24T12:17:51.952Z,0.18
2022-11-24T12:19:09.043Z,0
2022-11-24T12:20:25.934Z,0
2022-11-24T12:21:43.239Z,0
2022-11-24T12:22:59.930Z,0.18
2022-11-24T12:24:16.954Z,0
2022-11-24T12:25:34.283Z,0
2022-11-24T12:26:50.914Z,0
2022-11-24T12:28:07.996Z,0.21
2022-11-24T12:29:24.914Z,0.12
2022-11-24T12:30:41.970Z,0
2022-11-24T12:31:58.978Z,0
2022-11-24T12:33:16.066Z,0.17
2022-11-24T12:34:33.036Z,0
2022-11-24T12:35:49.921Z,0
2022-11-24T12:37:07.344Z,0
2022-11-24T12:38:23.978Z,0
2022-11-24T12:39:40.924Z,0
2022-11-24T12:41:12.005Z,0
2022-11-24T12:42:14.959Z,0
2022-11-24T12:43:31.944Z,0
2022-11-24T12:44:49.017Z,0.19
2022-11-24T12:46:06.356Z,0.29
2022-11-24T12:47:22.935Z,0.19
2022-11-24T12:48:39.964Z,0.43
2022-11-24T12:49:56.925Z,0.3
2022-11-24T12:51:14.246Z,0.13
2022-11-24T12:52:30.942Z,0.58
2022-11-24T12:53:48.007Z,0.59
2022-11-24T12:55:05.025Z,0.37
2022-11-24T12:56:21.986Z,0.5
2022-11-24T12:57:38.919Z,0.27
2022-11-24T12:58:55.947Z,0.39
2022-11-24T13:00:13.094Z,0.46
2022-11-24T13:01:30.000Z,0.34
2022-11-24T13:02:47.249Z,0.55
2022-11-24T13:04:04.813Z,0.58
2022-11-24T13:05:21.980Z,0.76
2022-11-24T13:06:40.319Z,0.49
2022-11-24T13:07:56.105Z,0.51
2022-11-24T13:09:13.146Z,0.38
2022-11-24T13:10:58.867Z,0.24
2022-11-24T13:11:47.003Z,0.49
2022-11-24T13:13:04.792Z,0.23
2022-11-24T13:14:21.963Z,0
2022-11-24T13:15:45.896Z,0.26
2022-11-24T13:18:13.266Z,0.22
2022-11-24T13:19:30.044Z,0.22
2022-11-24T13:20:46.971Z,0.16
2022-11-24T13:22:04.099Z,0
2022-11-24T13:23:20.975Z,0.35
2022-11-24T13:24:38.280Z,0.61
2022-11-24T13:25:55.099Z,0.57
2022-11-24T13:27:12.117Z,0.35
2022-11-24T13:28:46.432Z,0.27
2022-11-24T13:29:46.181Z,0.11
2022-11-24T13:31:03.107Z,0.27
2022-11-24T13:32:20.033Z,0.52
2022-11-24T13:33:37.177Z,0.44
2022-11-24T13:34:53.977Z,0.45
2022-11-24T13:36:11.009Z,0.42
2022-11-24T13:37:28.911Z,0.56
2022-11-24T13:38:45.038Z,0.5
2022-11-24T13:40:02.008Z,0.26
2022-11-24T13:41:28.359Z,0.48
2022-11-24T13:42:40.963Z,0.28
2022-11-24T13:43:53.029Z,0.43
2022-11-24T13:45:09.991Z,0.54
2022-11-24T13:46:27.083Z,0.73
2022-11-24T13:47:44.368Z,0.46
2022-11-24T13:49:01.022Z,0.49
2022-11-24T13:50:18.033Z,0.64
2022-11-24T13:51:35.036Z,0.46
2022-11-24T13:52:52.014Z,0.7
2022-11-24T13:54:09.005Z,0.48
2022-11-24T13:55:26.105Z,0.78
2022-11-24T13:56:43.122Z,0.81
2022-11-24T13:58:00.034Z,0.93
2022-11-24T13:59:17.016Z,0.66
2022-11-24T14:00:34.551Z,0.59
2022-11-24T14:01:51.254Z,0.7
2022-11-24T14:03:08.064Z,0.48
2022-11-24T14:04:33.011Z,0.81
2022-11-24T14:05:42.108Z,0.61
2022-11-24T14:07:05.470Z,0.53
2022-11-24T14:08:16.063Z,0.59
2022-11-24T14:09:33.036Z,0.31
2022-11-24T14:10:50.157Z,0.49
2022-11-24T14:12:07.311Z,0.35
2022-11-24T14:13:24.071Z,0.23
2022-11-24T14:14:41.022Z,0.44
2022-11-24T14:15:58.133Z,0.59
2022-11-24T14:17:15.103Z,0.38
2022-11-24T14:18:32.028Z,0.15
2022-11-24T14:19:49.275Z,0.29
2022-11-24T14:21:06.111Z,0.32
2022-11-24T14:22:23.065Z,0.4
2022-11-24T14:23:40.040Z,0.2
2022-11-24T14:24:57.036Z,0.27
2022-11-24T14:26:14.225Z,0.3
2022-11-24T14:27:31.044Z,0.31
2022-11-24T14:28:48.107Z,0.15
2022-11-24T14:30:05.422Z,0.63
2022-11-24T14:31:22.219Z,0.43
2022-11-24T14:32:39.224Z,0.35
2022-11-24T14:33:56.099Z,0.3
2022-11-24T14:35:13.303Z,0.26
2022-11-24T14:36:30.051Z,0.63
2022-11-24T14:37:47.073Z,0.6
2022-11-24T14:39:04.213Z,0.54
2022-11-24T14:40:21.067Z,0.67
2022-11-24T14:41:38.100Z,0.8
2022-11-24T14:42:55.072Z,0.61
2022-11-24T14:44:12.110Z,0.55
2022-11-24T14:45:29.087Z,0.42
2022-11-24T14:46:46.204Z,0.56
2022-11-24T14:48:03.107Z,0.25
2022-11-24T14:49:20.198Z,0.27
2022-11-24T14:50:37.282Z,0.45
2022-11-24T14:51:54.580Z,0.29
2022-11-24T14:53:11.102Z,0.2
2022-11-24T14:54:28.091Z,0.12
2022-11-24T14:55:45.103Z,0.2
2022-11-24T14:57:02.129Z,0.18
2022-11-24T14:58:19.067Z,0
2022-11-24T14:59:36.131Z,0
2022-11-24T15:00:53.283Z,0.19
2022-11-24T15:02:10.478Z,0.26
2022-11-24T15:03:27.473Z,0.21
2022-11-24T15:05:01.961Z,0.21
2022-11-24T15:06:01.224Z,0.12
2022-11-24T15:07:18.216Z,0.18
2022-11-24T15:08:35.132Z,0.2
2022-11-24T15:09:52.159Z,0
2022-11-24T15:11:10.704Z,0
2022-11-24T15:12:27.284Z,0
2022-11-24T15:13:44.127Z,0
2022-11-24T15:15:01.141Z,0
2022-11-24T15:16:18.133Z,0
2022-11-24T15:17:35.133Z,0.27
2022-11-24T15:18:52.128Z,0.29
2022-11-24T15:20:09.134Z,0.26
2022-11-24T15:21:26.123Z,0.28
2022-11-24T15:22:43.140Z,0.11
2022-11-24T15:24:00.166Z,0
2022-11-24T15:25:17.143Z,0
2022-11-24T15:26:40.169Z,0.15
2022-11-24T15:27:52.182Z,0.12
2022-11-24T15:29:09.131Z,0.09
2022-11-24T15:30:26.226Z,0.14
2022-11-24T15:31:46.392Z,0.2
2022-11-24T15:33:00.166Z,0.24
2022-11-24T15:34:17.171Z,0.35
2022-11-24T15:35:34.135Z,0.08
2022-11-24T15:36:51.136Z,0.28
2022-11-24T15:38:08.195Z,0.12
2022-11-24T15:39:25.152Z,0.29
2022-11-24T15:40:42.166Z,0.29
2022-11-24T15:41:59.349Z,0.4
2022-11-24T15:43:16.173Z,0.5
2022-11-24T15:44:33.453Z,0.31
2022-11-24T15:45:50.184Z,0.5
2022-11-24T15:47:07.575Z,0.29
2022-11-24T15:48:24.125Z,0.18
2022-11-24T15:49:41.528Z,0.42
2022-11-24T15:50:58.166Z,0.31
2022-11-24T15:52:16.073Z,0.34
2022-11-24T15:53:33.959Z,0.57
2022-11-24T15:54:51.202Z,0.46
2022-11-24T15:56:08.283Z,0.48
2022-11-24T15:57:25.322Z,0.45
2022-11-24T15:58:42.249Z,0.33
2022-11-24T15:59:59.165Z,0.39
2022-11-24T16:01:16.293Z,0.46
2022-11-24T16:02:33.321Z,0.5
2022-11-24T16:03:50.290Z,0.28
2022-11-24T16:05:07.252Z,0.25
2022-11-24T16:06:25.726Z,0.29
2022-11-24T16:07:42.411Z,0.39
2022-11-24T16:08:59.295Z,0.44
2022-11-24T16:10:16.327Z,0.52
2022-11-24T16:11:34.546Z,0.42
2022-11-24T16:12:51.264Z,0.29
2022-11-24T16:14:08.872Z,0.2
2022-11-24T16:15:26.175Z,0.29
2022-11-24T16:16:44.181Z,0.23
2022-11-24T16:18:01.254Z,0.38
2022-11-24T16:19:19.000Z,0.41
2022-11-24T16:20:36.957Z,0.3
2022-11-24T16:21:54.565Z,0.22
2022-11-24T16:23:11.391Z,0
2022-11-24T16:24:28.427Z,0.27
2022-11-24T16:25:45.680Z,0.17
2022-11-24T16:27:03.465Z,0.11
2022-11-24T16:28:20.678Z,0.28
2022-11-24T16:29:38.611Z,0.18
2022-11-24T16:30:55.230Z,0
2022-11-24T16:32:12.294Z,0
2022-11-24T16:33:29.865Z,0
2022-11-24T16:34:47.970Z,0
2022-11-24T16:36:05.088Z,0
2022-11-24T16:37:22.214Z,0
2022-11-24T16:38:39.293Z,0
2022-11-24T16:39:56.264Z,0.25
2022-11-24T16:41:14.070Z,0.13
2022-11-24T16:42:31.214Z,0
2022-11-24T16:43:48.258Z,0
2022-11-24T16:45:05.491Z,0
2022-11-24T16:46:22.417Z,0
2022-11-24T16:47:39.249Z,0
2022-11-24T16:48:56.653Z,0
2022-11-24T16:50:13.515Z,0
2022-11-24T16:51:34.598Z,0
2022-11-24T16:52:47.284Z,0
2022-11-24T16:54:04.459Z,0
2022-11-24T16:55:22.388Z,0
2022-11-24T16:56:39.698Z,0
2022-11-24T16:57:56.518Z,0
2022-11-24T16:59:13.447Z,0
2022-11-24T17:00:30.529Z,0
2022-11-24T17:01:48.137Z,0
2022-11-24T17:03:06.022Z,0
2022-11-24T17:04:23.271Z,0
2022-11-24T17:05:40.291Z,0
2022-11-24T17:06:57.268Z,0
2022-11-24T17:08:15.022Z,0
2022-11-24T17:09:36.070Z,0.27
2022-11-24T17:10:49.286Z,0.24
2022-11-24T17:12:06.403Z,0.39
2022-11-24T17:13:23.290Z,0.33
2022-11-24T17:14:40.280Z,0.14
2022-11-24T17:15:57.382Z,0.15
2022-11-24T17:17:14.348Z,0
2022-11-24T17:18:31.609Z,0
2022-11-24T17:19:48.509Z,0
2022-11-24T17:21:09.379Z,0.17
2022-11-24T17:22:22.266Z,0.12
2022-11-24T17:23:39.394Z,0
2022-11-24T17:24:56.297Z,0
2022-11-24T17:26:13.275Z,0
2022-11-24T17:27:30.309Z,0
2022-11-24T17:28:47.275Z,0
2022-11-24T17:30:04.430Z,0
2022-11-24T17:31:21.454Z,0.22
2022-11-24T17:32:39.164Z,0
2022-11-24T17:33:56.337Z,0
2022-11-24T17:35:13.528Z,0
2022-11-24T17:36:30.324Z,0
2022-11-24T17:37:47.368Z,0
2022-11-24T17:39:04.386Z,0.19
2022-11-24T17:40:28.220Z,0.11
2022-11-24T17:41:38.335Z,0
2022-11-24T17:42:55.292Z,0
2022-11-24T17:44:12.323Z,0
2022-11-24T17:45:29.518Z,0
2022-11-24T17:46:46.345Z,0
2022-11-24T17:48:03.501Z,0
2022-11-24T17:49:20.330Z,0
2022-11-24T17:50:37.323Z,0
2022-11-24T17:51:54.325Z,0.21
2022-11-24T17:53:12.070Z,0.25
2022-11-24T17:54:45.741Z,0.3
2022-11-24T17:55:45.358Z,0.29
2022-11-24T17:57:02.387Z,0.33
2022-11-24T17:58:19.364Z,0
2022-11-24T17:59:36.398Z,0
2022-11-24T18:00:53.583Z,0
2022-11-24T18:02:10.493Z,0
2022-11-24T18:03:27.337Z,0
2022-11-24T18:04:44.400Z,0
2022-11-24T18:06:01.329Z,0
2022-11-24T18:07:18.714Z,0
2022-11-24T18:08:35.366Z,0
2022-11-24T18:09:52.421Z,0
2022-11-24T18:11:09.429Z,0
2022-11-24T18:12:26.399Z,0
2022-11-24T18:14:00.889Z,0
2022-11-24T18:15:00.614Z,0
2022-11-24T18:20:00.400Z,0
2022-11-24T18:21:17.384Z,0
2022-11-24T18:22:58.201Z,0
2022-11-24T18:23:51.391Z,0
2022-11-24T18:25:08.394Z,0
2022-11-24T18:26:25.343Z,0